createdAt,value
2023-05-07T00:00:23.812Z,18.38
2023-05-07T00:02:51.385Z,15.15
2023-05-07T00:05:19.696Z,14.88
2023-05-07T00:07:47.993Z,14.17
2023-05-07T00:10:15.724Z,12.60
2023-05-07T00:12:43.227Z,17.17
2023-05-07T00:15:11.653Z,10.60
2023-05-07T00:17:39.550Z,9.97
2023-05-07T00:20:08.430Z,9.68
2023-05-07T00:22:36.132Z,13.25
2023-05-07T00:25:04.211Z,9.75
2023-05-07T00:27:32.264Z,10.47
2023-05-07T00:30:00.443Z,12.85
2023-05-07T00:32:27.993Z,14.85
2023-05-07T00:34:56.134Z,22.40
2023-05-07T00:37:23.648Z,23.65
2023-05-07T00:39:51.253Z,22.27
2023-05-07T00:42:18.774Z,23.40
2023-05-07T00:44:46.863Z,17.75
2023-05-07T00:47:15.229Z,21.58
2023-05-07T00:49:44.492Z,15.88
2023-05-07T00:52:17.223Z,15.50
2023-05-07T00:54:45.508Z,18.30
2023-05-07T00:57:13.220Z,12.70
2023-05-07T00:59:41.137Z,22.75
2023-05-07T01:02:08.886Z,20.17
2023-05-07T01:04:37.239Z,15.60
2023-05-07T01:07:05.664Z,18.48
2023-05-07T01:09:33.331Z,30.02
2023-05-07T01:12:01.172Z,13.25
2023-05-07T01:14:30.060Z,9.35
2023-05-07T01:16:57.640Z,22.85
2023-05-07T01:19:27.457Z,17.40
2023-05-07T01:22:04.523Z,39.33
2023-05-07T01:24:37.821Z,14.30
2023-05-07T01:27:06.353Z,23.85
2023-05-07T01:29:35.643Z,56.08
2023-05-07T01:32:04.006Z,40.13
2023-05-07T01:34:35.408Z,50.45
2023-05-07T01:37:03.220Z,31.65
2023-05-07T01:39:32.636Z,59.28
2023-05-07T01:42:00.755Z,88.70
2023-05-07T01:44:29.651Z,57.60
2023-05-07T01:46:58.882Z,57.63
2023-05-07T01:49:27.534Z,51.03
2023-05-07T01:51:56.306Z,41.83
2023-05-07T01:54:31.126Z,23.48
2023-05-07T01:57:00.356Z,23.95
2023-05-07T01:59:27.974Z,45.28
2023-05-07T02:01:55.703Z,17.88
2023-05-07T02:04:23.732Z,32.47
2023-05-07T02:06:53.252Z,31.73
2023-05-07T02:09:22.495Z,18.65
2023-05-07T02:11:51.017Z,14.35
2023-05-07T02:16:48.586Z,79.00
2023-05-07T02:19:17.280Z,18.77
2023-05-07T02:21:44.666Z,17.48
2023-05-07T02:24:12.211Z,23.27
2023-05-07T02:26:41.792Z,86.00
2023-05-07T02:29:09.480Z,93.00
2023-05-07T02:31:38.536Z,56.05
2023-05-07T02:34:06.118Z,54.80
2023-05-07T02:36:33.916Z,47.55
2023-05-07T02:39:09.510Z,98.05
2023-05-07T02:41:36.927Z,170.77
2023-05-07T02:44:04.679Z,47.70
2023-05-07T02:46:33.756Z,63.85
2023-05-07T02:49:05.495Z,275.95
2023-05-07T02:51:33.383Z,201.15
2023-05-07T02:54:03.974Z,287.50
2023-05-07T02:56:32.599Z,153.60
2023-05-07T02:59:00.189Z,102.90
2023-05-07T03:01:31.714Z,60.42
2023-05-07T03:04:05.724Z,61.67
2023-05-07T03:06:33.375Z,45.00
2023-05-07T03:09:01.064Z,83.32
2023-05-07T03:11:28.828Z,86.20
2023-05-07T03:13:56.770Z,44.50
2023-05-07T03:16:24.282Z,48.88
2023-05-07T03:18:51.966Z,60.22
2023-05-07T03:21:19.711Z,45.63
2023-05-07T03:23:47.232Z,36.90
2023-05-07T03:26:14.772Z,41.63
2023-05-07T03:28:42.735Z,31.15
2023-05-07T03:31:14.042Z,35.17
2023-05-07T03:33:56.584Z,42.10
2023-05-07T03:36:27.103Z,38.13
2023-05-07T03:38:55.281Z,36.67
2023-05-07T03:41:26.385Z,60.72
2023-05-07T03:43:53.853Z,64.40
2023-05-07T03:46:21.618Z,53.40
2023-05-07T03:48:49.190Z,58.50
2023-05-07T03:51:17.840Z,67.63
2023-05-07T03:53:45.546Z,69.50
2023-05-07T03:56:13.178Z,70.45
2023-05-07T03:58:42.355Z,64.22
2023-05-07T04:01:12.522Z,66.68
2023-05-07T04:03:40.162Z,78.82
2023-05-07T04:06:08.168Z,45.30
2023-05-07T04:08:36.762Z,34.27
2023-05-07T04:11:05.713Z,49.40
2023-05-07T04:13:34.458Z,67.18
2023-05-07T04:16:05.836Z,55.72
2023-05-07T04:18:35.919Z,45.97
2023-05-07T04:21:03.439Z,78.85
2023-05-07T04:23:31.555Z,62.65
2023-05-07T04:26:03.602Z,55.58
2023-05-07T04:28:36.781Z,49.20
2023-05-07T04:31:04.339Z,36.78
2023-05-07T04:33:34.447Z,43.13
2023-05-07T04:36:04.826Z,40.22
2023-05-07T04:38:36.930Z,37.40
2023-05-07T04:41:06.855Z,41.05
2023-05-07T04:43:38.541Z,35.55
2023-05-07T04:46:07.194Z,36.15
2023-05-07T04:48:35.148Z,36.75
2023-05-07T04:51:05.298Z,40.00
2023-05-07T04:53:32.963Z,40.58
2023-05-07T04:56:00.595Z,43.10
2023-05-07T04:58:34.042Z,38.15
2023-05-07T05:01:02.062Z,37.97
2023-05-07T05:03:30.653Z,43.85
2023-05-07T05:06:00.178Z,38.92
2023-05-07T05:08:31.430Z,40.50
2023-05-07T05:11:00.973Z,36.85
2023-05-07T05:13:28.824Z,53.85
2023-05-07T05:15:56.779Z,50.50
2023-05-07T05:18:25.279Z,45.35
2023-05-07T05:20:52.960Z,50.58
2023-05-07T05:23:20.670Z,73.53
2023-05-07T05:25:48.716Z,70.07
2023-05-07T05:28:16.802Z,65.25
2023-05-07T05:30:44.504Z,57.78
2023-05-07T05:33:12.056Z,56.60
2023-05-07T05:35:39.922Z,48.60
2023-05-07T05:38:12.147Z,45.47
2023-05-07T05:40:41.043Z,37.63
2023-05-07T05:43:09.042Z,36.33
2023-05-07T05:45:38.401Z,36.05
2023-05-07T05:48:07.339Z,24.05
2023-05-07T05:50:37.012Z,15.80
2023-05-07T05:53:05.847Z,32.85
2023-05-07T05:55:35.024Z,24.58
2023-05-07T06:00:32.928Z,24.70
2023-05-07T06:03:04.376Z,22.38
2023-05-07T06:05:32.262Z,23.17
2023-05-07T06:08:00.006Z,20.20
2023-05-07T06:10:31.952Z,21.38
2023-05-07T06:12:59.781Z,18.60
2023-05-07T06:15:27.486Z,20.67
2023-05-07T06:17:57.789Z,15.20
2023-05-07T06:20:25.680Z,14.35
2023-05-07T06:25:20.963Z,32.45
2023-05-07T06:27:49.929Z,8.57
2023-05-07T06:30:17.516Z,9.25
2023-05-07T06:32:45.278Z,3.55
2023-05-07T06:35:14.344Z,3.03
2023-05-07T06:37:45.848Z,10.63
2023-05-07T06:40:18.727Z,7.22
2023-05-07T06:42:48.012Z,5.90
2023-05-07T06:45:38.600Z,7.60
2023-05-07T06:48:07.831Z,8.20
2023-05-07T06:50:44.999Z,10.07
2023-05-07T06:53:12.531Z,5.38
2023-05-07T06:55:40.473Z,4.32
2023-05-07T06:58:08.278Z,3.42
2023-05-07T07:00:35.999Z,5.43
2023-05-07T07:03:03.562Z,4.53
2023-05-07T07:05:31.742Z,11.50
2023-05-07T07:08:00.757Z,14.35
2023-05-07T07:10:28.815Z,2.60
2023-05-07T07:12:58.798Z,6.53
2023-05-07T07:15:26.928Z,9.98
2023-05-07T07:17:56.383Z,9.30
2023-05-07T07:20:25.354Z,7.20
2023-05-07T07:22:53.340Z,9.98
2023-05-07T07:25:21.001Z,8.27
2023-05-07T07:30:17.638Z,8.85
2023-05-07T07:32:48.668Z,14.20
2023-05-07T07:37:45.581Z,10.98
2023-05-07T07:40:15.093Z,4.82
2023-05-07T07:42:43.082Z,9.15
2023-05-07T07:45:11.269Z,5.20
2023-05-07T07:47:42.801Z,7.65
2023-05-07T07:50:11.091Z,3.30
2023-05-07T07:57:37.123Z,5.20
2023-05-07T08:00:07.630Z,3.65
2023-05-07T08:02:44.383Z,6.95
2023-05-07T08:05:18.954Z,7.20
2023-05-07T08:07:52.517Z,2.08
2023-05-07T08:10:22.821Z,3.13
2023-05-07T08:12:55.253Z,3.42
2023-05-07T08:15:22.860Z,1.92
2023-05-07T08:20:19.933Z,2.50
2023-05-07T08:22:47.820Z,8.07
2023-05-07T08:25:15.376Z,2.63
2023-05-07T08:27:44.784Z,2.63
2023-05-07T08:30:15.197Z,4.35
2023-05-07T08:32:43.245Z,3.03
2023-05-07T08:35:11.012Z,1.42
2023-05-07T08:37:39.061Z,4.22
2023-05-07T08:40:10.194Z,2.70
2023-05-07T08:42:41.714Z,0.73
2023-05-07T08:45:11.682Z,1.27
2023-05-07T08:47:51.642Z,1.10
2023-05-07T08:50:22.216Z,1.02
2023-05-07T08:52:50.881Z,4.95
